Terminal Aerodrome Forecast
Issued by NWS

Home | Current Version | Previous Version | Text Only | Print | Product List | Glossary On
Versions: 1 2 3 4 5 6 7 8 9 10 11 12 13 14 15 16 17 18 19 20 21 22 23 24 25 26 27 28 29 30 31 32 33 34 35
000
FTUS43 KDTX 301123
TAFYIP
TAF
KYIP 301123Z 3012/3112 20011KT P6SM BKN080 OVC150
     FM301600 23013KT 5SM -SHRA OVC035
      TEMPO 3019/3023 TSRA OVC035CB
     FM302300 03013G20KT 4SM -SHRA BR OVC007
     FM310500 03014G23KT 2SM SHRA BR OVC007=

USA.gov is the U.S. government's official web portal to all federal, state and local government web resources and services.